sensor_id;sensor_type;location;lat;lon;timestamp;pressure;altitude;pressure_sealevel;temperature;humidity
30073;BME280;16897;52.422;13.678;2023-06-04T00:02:16;101818.00;;;14.63;29.31
30073;BME280;16897;52.422;13.678;2023-06-04T00:06:17;101808.38;;;14.46;29.45
30073;BME280;16897;52.422;13.678;2023-06-04T00:10:19;101813.56;;;14.48;29.42
30073;BME280;16897;52.422;13.678;2023-06-04T00:14:21;101805.25;;;14.39;29.38
30073;BME280;16897;52.422;13.678;2023-06-04T00:18:22;101799.53;;;14.31;29.54
30073;BME280;16897;52.422;13.678;2023-06-04T00:22:24;101808.09;;;14.35;29.49
30073;BME280;16897;52.422;13.678;2023-06-04T00:26:25;101808.09;;;14.35;29.64
30073;BME280;16897;52.422;13.678;2023-06-04T00:30:27;101801.41;;;14.29;29.54
30073;BME280;16897;52.422;13.678;2023-06-04T00:34:29;101805.03;;;14.27;29.71
30073;BME280;16897;52.422;13.678;2023-06-04T00:38:31;101771.53;;;14.14;29.70
30073;BME280;16897;52.422;13.678;2023-06-04T00:42:33;101779.69;;;14.10;29.72
30073;BME280;16897;52.422;13.678;2023-06-04T00:46:35;101786.84;;;14.06;29.84
30073;BME280;16897;52.422;13.678;2023-06-04T00:50:37;101784.47;;;14.02;29.85
30073;BME280;16897;52.422;13.678;2023-06-04T00:54:39;101743.53;;;13.64;29.89
30073;BME280;16897;52.422;13.678;2023-06-04T00:58:41;101777.78;;;13.79;29.85
30073;BME280;16897;52.422;13.678;2023-06-04T01:02:44;101756.13;;;13.58;29.83
30073;BME280;16897;52.422;13.678;2023-06-04T01:06:52;101785.69;;;13.61;29.96
30073;BME280;16897;52.422;13.678;2023-06-04T01:10:57;101767.31;;;13.44;30.04
30073;BME280;16897;52.422;13.678;2023-06-04T01:14:59;101785.38;;;13.50;30.01
30073;BME280;16897;52.422;13.678;2023-06-04T01:19:03;101772.31;;;13.31;30.02
30073;BME280;16897;52.422;13.678;2023-06-04T01:27:36;101777.38;;;13.17;30.03
30073;BME280;16897;52.422;13.678;2023-06-04T01:31:37;101773.50;;;13.06;30.04
30073;BME280;16897;52.422;13.678;2023-06-04T01:35:39;101788.47;;;13.04;30.17
30073;BME280;16897;52.422;13.678;2023-06-04T01:39:41;101782.03;;;12.93;30.23
30073;BME280;16897;52.422;13.678;2023-06-04T01:43:43;101783.75;;;12.94;30.16
30073;BME280;16897;52.422;13.678;2023-06-04T01:47:45;101774.84;;;12.79;30.20
30073;BME280;16897;52.422;13.678;2023-06-04T01:51:47;101782.91;;;12.74;30.42
30073;BME280;16897;52.422;13.678;2023-06-04T01:55:49;101764.72;;;12.52;30.45
30073;BME280;16897;52.422;13.678;2023-06-04T01:59:51;101761.63;;;12.44;30.42
30073;BME280;16897;52.422;13.678;2023-06-04T02:03:53;101780.53;;;12.51;30.56
30073;BME280;16897;52.422;13.678;2023-06-04T02:07:54;101734.78;;;12.20;30.61
30073;BME280;16897;52.422;13.678;2023-06-04T02:11:56;101775.84;;;12.38;30.53
30073;BME280;16897;52.422;13.678;2023-06-04T02:15:58;101759.72;;;12.29;30.62
30073;BME280;16897;52.422;13.678;2023-06-04T02:19:59;101769.13;;;12.33;30.62
30073;BME280;16897;52.422;13.678;2023-06-04T02:24:01;101766.78;;;12.27;30.74
30073;BME280;16897;52.422;13.678;2023-06-04T02:28:03;101772.03;;;12.27;30.58
30073;BME280;16897;52.422;13.678;2023-06-04T02:32:04;101779.38;;;12.18;30.58
30073;BME280;16897;52.422;13.678;2023-06-04T02:36:06;101779.88;;;12.08;30.69
30073;BME280;16897;52.422;13.678;2023-06-04T02:40:08;101767.25;;;11.97;30.80
30073;BME280;16897;52.422;13.678;2023-06-04T02:44:10;101770.59;;;11.80;30.81
30073;BME280;16897;52.422;13.678;2023-06-04T02:48:12;101775.41;;;11.69;31.02
30073;BME280;16897;52.422;13.678;2023-06-04T02:52:13;101780.00;;;11.64;31.09
30073;BME280;16897;52.422;13.678;2023-06-04T02:56:15;101730.94;;;11.28;30.92
30073;BME280;16897;52.422;13.678;2023-06-04T03:00:17;101790.72;;;11.58;30.89
30073;BME280;16897;52.422;13.678;2023-06-04T03:04:18;101777.44;;;11.42;31.01
30073;BME280;16897;52.422;13.678;2023-06-04T03:08:22;101789.34;;;11.49;31.26
30073;BME280;16897;52.422;13.678;2023-06-04T03:12:24;101767.22;;;11.36;31.16
30073;BME280;16897;52.422;13.678;2023-06-04T03:16:26;101792.94;;;11.46;31.17
30073;BME280;16897;52.422;13.678;2023-06-04T03:20:28;101769.19;;;11.30;31.10
30073;BME280;16897;52.422;13.678;2023-06-04T03:24:29;101767.84;;;11.20;31.28
30073;BME280;16897;52.422;13.678;2023-06-04T03:28:31;101768.25;;;11.11;31.37
30073;BME280;16897;52.422;13.678;2023-06-04T03:32:35;101772.88;;;11.04;31.23
30073;BME280;16897;52.422;13.678;2023-06-04T03:36:37;101774.88;;;10.98;31.28
30073;BME280;16897;52.422;13.678;2023-06-04T03:40:40;101778.63;;;10.91;31.43
30073;BME280;16897;52.422;13.678;2023-06-04T03:44:44;101752.59;;;10.67;31.28
30073;BME280;16897;52.422;13.678;2023-06-04T03:48:46;101768.72;;;10.77;31.45
30073;BME280;16897;52.422;13.678;2023-06-04T03:52:48;101789.63;;;10.77;31.55
30073;BME280;16897;52.422;13.678;2023-06-04T03:56:52;101782.84;;;10.73;31.56
30073;BME280;16897;52.422;13.678;2023-06-04T04:00:54;101788.00;;;10.74;31.54
30073;BME280;16897;52.422;13.678;2023-06-04T04:04:56;101782.97;;;10.70;31.53
30073;BME280;16897;52.422;13.678;2023-06-04T04:08:58;101790.81;;;10.70;31.59
30073;BME280;16897;52.422;13.678;2023-06-04T04:13:00;101772.97;;;10.57;31.91
30073;BME280;16897;52.422;13.678;2023-06-04T04:17:05;101791.94;;;10.62;31.77
30073;BME280;16897;52.422;13.678;2023-06-04T04:21:07;101763.09;;;10.42;31.77
30073;BME280;16897;52.422;13.678;2023-06-04T04:25:09;101783.41;;;10.57;31.72
30073;BME280;16897;52.422;13.678;2023-06-04T04:29:11;101796.91;;;10.69;32.01
30073;BME280;16897;52.422;13.678;2023-06-04T04:33:14;101798.50;;;10.73;32.10
30073;BME280;16897;52.422;13.678;2023-06-04T04:37:21;101745.50;;;10.47;31.94
30073;BME280;16897;52.422;13.678;2023-06-04T04:41:24;101752.06;;;10.57;32.13
30073;BME280;16897;52.422;13.678;2023-06-04T04:45:29;101779.94;;;10.80;32.08
30073;BME280;16897;52.422;13.678;2023-06-04T04:49:35;101783.81;;;10.92;32.17
30073;BME280;16897;52.422;13.678;2023-06-04T04:53:36;101787.78;;;11.02;32.30
30073;BME280;16897;52.422;13.678;2023-06-04T04:57:39;101794.97;;;11.18;32.24
30073;BME280;16897;52.422;13.678;2023-06-04T05:01:41;101798.91;;;11.28;32.38
30073;BME280;16897;52.422;13.678;2023-06-04T05:05:42;101769.44;;;11.24;32.42
30073;BME280;16897;52.422;13.678;2023-06-04T05:10:24;101811.59;;;11.59;32.52
30073;BME280;16897;52.422;13.678;2023-06-04T05:14:26;101816.28;;;11.71;32.73
30073;BME280;16897;52.422;13.678;2023-06-04T05:18:28;101793.53;;;11.73;32.62
30073;BME280;16897;52.422;13.678;2023-06-04T05:22:33;101765.03;;;11.67;32.87
30073;BME280;16897;52.422;13.678;2023-06-04T05:26:36;101782.97;;;11.97;32.80
30073;BME280;16897;52.422;13.678;2023-06-04T05:30:44;101806.00;;;12.28;32.83
30073;BME280;16897;52.422;13.678;2023-06-04T05:34:46;101804.31;;;12.46;32.88
30073;BME280;16897;52.422;13.678;2023-06-04T05:38:48;101771.09;;;12.47;33.39
30073;BME280;16897;52.422;13.678;2023-06-04T05:42:59;101813.34;;;12.96;33.10
30073;BME280;16897;52.422;13.678;2023-06-04T05:47:01;101813.59;;;13.27;33.39
30073;BME280;16897;52.422;13.678;2023-06-04T05:51:05;101765.94;;;13.37;33.37
30073;BME280;16897;52.422;13.678;2023-06-04T05:55:07;101811.03;;;13.95;33.50
30073;BME280;16897;52.422;13.678;2023-06-04T05:59:13;101808.34;;;14.30;33.56
30073;BME280;16897;52.422;13.678;2023-06-04T06:03:15;101806.28;;;14.69;33.58
30073;BME280;16897;52.422;13.678;2023-06-04T06:07:20;101802.72;;;15.01;33.47
30073;BME280;16897;52.422;13.678;2023-06-04T06:11:22;101817.75;;;15.45;33.56
30073;BME280;16897;52.422;13.678;2023-06-04T06:15:24;101808.50;;;15.68;33.64
30073;BME280;16897;52.422;13.678;2023-06-04T06:19:27;101821.75;;;16.11;33.67
30073;BME280;16897;52.422;13.678;2023-06-04T06:23:29;101829.19;;;16.48;33.88
30073;BME280;16897;52.422;13.678;2023-06-04T06:27:30;101818.13;;;16.70;33.56
30073;BME280;16897;52.422;13.678;2023-06-04T06:31:32;101833.72;;;17.01;33.60
30073;BME280;16897;52.422;13.678;2023-06-04T06:35:33;101834.66;;;17.28;33.43
30073;BME280;16897;52.422;13.678;2023-06-04T06:39:35;101829.00;;;17.46;33.49
30073;BME280;16897;52.422;13.678;2023-06-04T06:43:37;101821.84;;;17.61;33.29
30073;BME280;16897;52.422;13.678;2023-06-04T06:47:38;101846.44;;;17.89;33.19
30073;BME280;16897;52.422;13.678;2023-06-04T06:51:40;101830.25;;;18.06;33.41
30073;BME280;16897;52.422;13.678;2023-06-04T06:55:42;101826.75;;;18.19;33.26
30073;BME280;16897;52.422;13.678;2023-06-04T06:59:43;101831.16;;;18.44;32.99
30073;BME280;16897;52.422;13.678;2023-06-04T07:03:45;101827.13;;;18.64;33.02
30073;BME280;16897;52.422;13.678;2023-06-04T07:07:46;101826.91;;;18.79;32.94
30073;BME280;16897;52.422;13.678;2023-06-04T07:11:49;101837.28;;;19.07;33.13
30073;BME280;16897;52.422;13.678;2023-06-04T07:15:51;101828.41;;;19.19;32.88
30073;BME280;16897;52.422;13.678;2023-06-04T07:19:52;101819.59;;;19.42;33.16
30073;BME280;16897;52.422;13.678;2023-06-04T07:23:54;101831.22;;;19.64;32.85
30073;BME280;16897;52.422;13.678;2023-06-04T07:27:56;101840.97;;;19.87;32.91
30073;BME280;16897;52.422;13.678;2023-06-04T07:31:59;101833.72;;;20.01;32.74
30073;BME280;16897;52.422;13.678;2023-06-04T07:36:01;101828.22;;;20.15;32.69
30073;BME280;16897;52.422;13.678;2023-06-04T07:40:03;101844.72;;;20.41;32.29
30073;BME280;16897;52.422;13.678;2023-06-04T07:44:04;101837.59;;;20.53;32.33
30073;BME280;16897;52.422;13.678;2023-06-04T07:48:08;101849.31;;;20.73;32.41
30073;BME280;16897;52.422;13.678;2023-06-04T07:52:09;101833.50;;;20.83;32.59
30073;BME280;16897;52.422;13.678;2023-06-04T07:56:11;101839.31;;;21.09;32.03
30073;BME280;16897;52.422;13.678;2023-06-04T08:00:12;101831.66;;;21.27;31.90
30073;BME280;16897;52.422;13.678;2023-06-04T08:04:15;101820.72;;;21.41;32.29
30073;BME280;16897;52.422;13.678;2023-06-04T08:08:17;101816.34;;;21.51;31.97
30073;BME280;16897;52.422;13.678;2023-06-04T08:12:18;101819.66;;;21.64;31.94
30073;BME280;16897;52.422;13.678;2023-06-04T08:16:20;101830.66;;;21.81;31.86
30073;BME280;16897;52.422;13.678;2023-06-04T08:20:21;101834.41;;;21.99;31.56
30073;BME280;16897;52.422;13.678;2023-06-04T08:24:23;101822.09;;;21.98;31.30
30073;BME280;16897;52.422;13.678;2023-06-04T08:28:24;101818.34;;;22.10;31.23
30073;BME280;16897;52.422;13.678;2023-06-04T08:32:30;101831.50;;;22.33;31.66
30073;BME280;16897;52.422;13.678;2023-06-04T08:36:32;101801.53;;;22.31;31.56
30073;BME280;16897;52.422;13.678;2023-06-04T08:40:36;101833.41;;;22.62;31.15
30073;BME280;16897;52.422;13.678;2023-06-04T08:44:38;101822.22;;;22.68;31.01
30073;BME280;16897;52.422;13.678;2023-06-04T08:48:40;101822.00;;;22.90;31.10
30073;BME280;16897;52.422;13.678;2023-06-04T08:52:41;101825.81;;;23.07;30.83
30073;BME280;16897;52.422;13.678;2023-06-04T08:56:43;101830.31;;;23.26;31.16
30073;BME280;16897;52.422;13.678;2023-06-04T09:00:45;101825.94;;;23.35;31.15
30073;BME280;16897;52.422;13.678;2023-06-04T09:04:47;101836.47;;;23.56;31.05
30073;BME280;16897;52.422;13.678;2023-06-04T09:08:48;101837.31;;;23.66;30.65
30073;BME280;16897;52.422;13.678;2023-06-04T09:12:50;101831.13;;;23.75;30.64
30073;BME280;16897;52.422;13.678;2023-06-04T09:16:53;101830.28;;;23.84;30.53
30073;BME280;16897;52.422;13.678;2023-06-04T09:21:06;101835.28;;;23.97;30.28
30073;BME280;16897;52.422;13.678;2023-06-04T09:25:19;101830.88;;;24.06;30.22
30073;BME280;16897;52.422;13.678;2023-06-04T09:29:21;101835.91;;;24.19;30.65
30073;BME280;16897;52.422;13.678;2023-06-04T09:33:23;101835.34;;;24.25;30.25
30073;BME280;16897;52.422;13.678;2023-06-04T09:37:28;101831.81;;;24.24;29.68
30073;BME280;16897;52.422;13.678;2023-06-04T09:41:29;101840.28;;;24.20;29.68
30073;BME280;16897;52.422;13.678;2023-06-04T09:45:34;101830.44;;;24.20;29.70
30073;BME280;16897;52.422;13.678;2023-06-04T09:49:46;101835.03;;;24.28;29.65
30073;BME280;16897;52.422;13.678;2023-06-04T09:53:54;101829.81;;;24.36;29.58
30073;BME280;16897;52.422;13.678;2023-06-04T09:57:57;101830.03;;;24.43;29.92
30073;BME280;16897;52.422;13.678;2023-06-04T10:01:59;101815.66;;;24.54;29.77
30073;BME280;16897;52.422;13.678;2023-06-04T10:06:04;101829.28;;;24.78;29.65
30073;BME280;16897;52.422;13.678;2023-06-04T10:10:06;101804.09;;;24.81;29.59
30073;BME280;16897;52.422;13.678;2023-06-04T10:14:23;101827.34;;;24.98;29.39
30073;BME280;16897;52.422;13.678;2023-06-04T10:18:29;101813.38;;;25.04;28.99
30073;BME280;16897;52.422;13.678;2023-06-04T10:22:38;101797.72;;;25.09;29.40
30073;BME280;16897;52.422;13.678;2023-06-04T10:26:40;101798.03;;;25.24;29.52
30073;BME280;16897;52.422;13.678;2023-06-04T10:30:43;101802.28;;;25.35;29.39
30073;BME280;16897;52.422;13.678;2023-06-04T10:34:46;101817.63;;;25.51;28.96
30073;BME280;16897;52.422;13.678;2023-06-04T10:38:52;101820.03;;;25.62;29.45
30073;BME280;16897;52.422;13.678;2023-06-04T10:42:54;101802.63;;;25.58;29.09
30073;BME280;16897;52.422;13.678;2023-06-04T10:46:56;101807.72;;;25.69;28.79
30073;BME280;16897;52.422;13.678;2023-06-04T10:50:58;101806.09;;;25.76;29.04
30073;BME280;16897;52.422;13.678;2023-06-04T10:55:04;101797.53;;;25.73;28.65
30073;BME280;16897;52.422;13.678;2023-06-04T10:59:13;101803.63;;;25.83;28.88
30073;BME280;16897;52.422;13.678;2023-06-04T11:03:16;101810.56;;;25.94;28.90
30073;BME280;16897;52.422;13.678;2023-06-04T11:07:17;101802.53;;;25.94;28.75
30073;BME280;16897;52.422;13.678;2023-06-04T11:11:19;101795.56;;;26.01;28.69
30073;BME280;16897;52.422;13.678;2023-06-04T11:15:20;101787.34;;;26.02;28.36
30073;BME280;16897;52.422;13.678;2023-06-04T11:19:22;101791.75;;;26.12;28.43
30073;BME280;16897;52.422;13.678;2023-06-04T11:23:24;101796.09;;;26.13;28.29
30073;BME280;16897;52.422;13.678;2023-06-04T11:27:26;101781.63;;;25.97;28.01
30073;BME280;16897;52.422;13.678;2023-06-04T11:31:27;101782.47;;;25.90;28.08
30073;BME280;16897;52.422;13.678;2023-06-04T11:35:29;101786.63;;;25.92;28.17
30073;BME280;16897;52.422;13.678;2023-06-04T11:39:34;101765.38;;;25.91;27.97
30073;BME280;16897;52.422;13.678;2023-06-04T11:43:37;101775.84;;;26.10;28.28
30073;BME280;16897;52.422;13.678;2023-06-04T11:47:51;101779.25;;;26.20;27.87
30073;BME280;16897;52.422;13.678;2023-06-04T11:51:54;101783.78;;;26.28;27.79
30073;BME280;16897;52.422;13.678;2023-06-04T11:55:56;101789.19;;;26.36;27.87
30073;BME280;16897;52.422;13.678;2023-06-04T11:59:57;101762.72;;;26.33;27.74
30073;BME280;16897;52.422;13.678;2023-06-04T12:03:59;101786.00;;;26.49;27.75
30073;BME280;16897;52.422;13.678;2023-06-04T12:08:05;101789.25;;;26.53;27.49
30073;BME280;16897;52.422;13.678;2023-06-04T12:12:08;101778.16;;;26.47;27.40
30073;BME280;16897;52.422;13.678;2023-06-04T12:16:13;101781.22;;;26.53;27.73
30073;BME280;16897;52.422;13.678;2023-06-04T12:20:15;101768.94;;;26.50;27.82
30073;BME280;16897;52.422;13.678;2023-06-04T12:24:16;101782.75;;;26.63;27.64
30073;BME280;16897;52.422;13.678;2023-06-04T12:28:18;101744.16;;;26.48;27.49
30073;BME280;16897;52.422;13.678;2023-06-04T12:32:21;101770.50;;;26.61;27.48
30073;BME280;16897;52.422;13.678;2023-06-04T12:36:22;101734.94;;;26.42;27.24
30073;BME280;16897;52.422;13.678;2023-06-04T12:40:24;101769.34;;;26.72;27.28
30073;BME280;16897;52.422;13.678;2023-06-04T12:44:25;101751.09;;;26.67;27.43
30073;BME280;16897;52.422;13.678;2023-06-04T12:48:27;101770.06;;;26.82;27.22
30073;BME280;16897;52.422;13.678;2023-06-04T12:52:28;101768.69;;;26.86;27.34
30073;BME280;16897;52.422;13.678;2023-06-04T12:56:30;101765.53;;;26.90;26.99
30073;BME280;16897;52.422;13.678;2023-06-04T13:00:32;101755.47;;;26.92;26.70
30073;BME280;16897;52.422;13.678;2023-06-04T13:04:33;101738.03;;;26.88;26.90
30073;BME280;16897;52.422;13.678;2023-06-04T13:08:36;101743.41;;;26.97;27.00
30073;BME280;16897;52.422;13.678;2023-06-04T13:12:37;101765.03;;;27.11;26.66
30073;BME280;16897;52.422;13.678;2023-06-04T13:16:39;101759.47;;;27.13;26.62
30073;BME280;16897;52.422;13.678;2023-06-04T13:20:41;101756.31;;;27.09;26.90
30073;BME280;16897;52.422;13.678;2023-06-04T13:24:42;101716.59;;;26.97;26.98
30073;BME280;16897;52.422;13.678;2023-06-04T13:28:44;101764.84;;;27.13;26.43
30073;BME280;16897;52.422;13.678;2023-06-04T13:32:46;101754.13;;;27.13;26.68
30073;BME280;16897;52.422;13.678;2023-06-04T13:36:47;101742.41;;;27.14;26.51
30073;BME280;16897;52.422;13.678;2023-06-04T13:40:49;101724.63;;;27.05;26.49
30073;BME280;16897;52.422;13.678;2023-06-04T13:44:51;101749.09;;;27.10;26.49
30073;BME280;16897;52.422;13.678;2023-06-04T13:48:52;101746.09;;;27.05;26.56
30073;BME280;16897;52.422;13.678;2023-06-04T13:52:54;101737.69;;;27.08;26.22
30073;BME280;16897;52.422;13.678;2023-06-04T13:56:55;101744.75;;;27.09;26.14
30073;BME280;16897;52.422;13.678;2023-06-04T14:00:56;101722.97;;;27.12;26.10
30073;BME280;16897;52.422;13.678;2023-06-04T14:04:58;101728.34;;;27.20;26.15
30073;BME280;16897;52.422;13.678;2023-06-04T14:08:59;101708.75;;;27.20;26.06
30073;BME280;16897;52.422;13.678;2023-06-04T14:13:01;101722.47;;;27.33;26.10
30073;BME280;16897;52.422;13.678;2023-06-04T14:17:03;101708.72;;;27.28;25.88
30073;BME280;16897;52.422;13.678;2023-06-04T14:21:05;101710.41;;;27.21;26.15
30073;BME280;16897;52.422;13.678;2023-06-04T14:25:07;101719.59;;;27.34;25.73
30073;BME280;16897;52.422;13.678;2023-06-04T14:29:09;101717.94;;;27.33;25.67
30073;BME280;16897;52.422;13.678;2023-06-04T14:33:10;101716.59;;;27.29;25.41
30073;BME280;16897;52.422;13.678;2023-06-04T14:37:12;101721.28;;;27.19;25.28
30073;BME280;16897;52.422;13.678;2023-06-04T14:41:14;101704.00;;;27.05;25.48
30073;BME280;16897;52.422;13.678;2023-06-04T14:45:16;101711.06;;;27.14;25.39
30073;BME280;16897;52.422;13.678;2023-06-04T14:49:17;101700.13;;;27.16;25.39
30073;BME280;16897;52.422;13.678;2023-06-04T14:53:19;101711.91;;;27.23;25.57
30073;BME280;16897;52.422;13.678;2023-06-04T14:57:21;101654.94;;;26.88;25.01
30073;BME280;16897;52.422;13.678;2023-06-04T15:01:22;101703.72;;;27.25;25.21
30073;BME280;16897;52.422;13.678;2023-06-04T15:05:25;101705.69;;;27.31;24.88
30073;BME280;16897;52.422;13.678;2023-06-04T15:09:26;101696.47;;;27.33;25.32
30073;BME280;16897;52.422;13.678;2023-06-04T15:13:28;101689.94;;;27.28;25.29
30073;BME280;16897;52.422;13.678;2023-06-04T15:17:36;101670.31;;;27.11;25.12
30073;BME280;16897;52.422;13.678;2023-06-04T15:21:38;101686.09;;;27.22;25.01
30073;BME280;16897;52.422;13.678;2023-06-04T15:25:39;101686.41;;;27.27;24.94
30073;BME280;16897;52.422;13.678;2023-06-04T15:29:43;101687.78;;;27.23;25.16
30073;BME280;16897;52.422;13.678;2023-06-04T15:33:44;101679.88;;;27.22;24.62
30073;BME280;16897;52.422;13.678;2023-06-04T15:37:46;101690.59;;;27.30;24.84
30073;BME280;16897;52.422;13.678;2023-06-04T15:41:47;101691.47;;;27.22;24.25
30073;BME280;16897;52.422;13.678;2023-06-04T15:45:48;101694.31;;;27.21;24.83
30073;BME280;16897;52.422;13.678;2023-06-04T15:49:50;101695.94;;;27.13;24.27
30073;BME280;16897;52.422;13.678;2023-06-04T15:53:52;101696.97;;;27.12;24.76
30073;BME280;16897;52.422;13.678;2023-06-04T15:57:53;101696.16;;;27.12;24.58
30073;BME280;16897;52.422;13.678;2023-06-04T16:01:54;101694.78;;;27.08;24.51
30073;BME280;16897;52.422;13.678;2023-06-04T16:05:56;101670.31;;;27.03;24.68
30073;BME280;16897;52.422;13.678;2023-06-04T16:09:57;101670.66;;;27.08;24.89
30073;BME280;16897;52.422;13.678;2023-06-04T16:13:59;101652.25;;;26.97;24.53
30073;BME280;16897;52.422;13.678;2023-06-04T16:18:00;101675.38;;;27.14;24.56
30073;BME280;16897;52.422;13.678;2023-06-04T16:22:02;101675.88;;;27.18;24.60
30073;BME280;16897;52.422;13.678;2023-06-04T16:26:03;101671.00;;;27.21;24.59
30073;BME280;16897;52.422;13.678;2023-06-04T16:30:05;101672.03;;;27.20;24.52
30073;BME280;16897;52.422;13.678;2023-06-04T16:34:07;101653.25;;;27.04;24.79
30073;BME280;16897;52.422;13.678;2023-06-04T16:38:09;101666.13;;;27.08;24.64
30073;BME280;16897;52.422;13.678;2023-06-04T16:42:10;101645.03;;;26.97;24.56
30073;BME280;16897;52.422;13.678;2023-06-04T16:46:14;101667.97;;;27.08;24.47
30073;BME280;16897;52.422;13.678;2023-06-04T16:50:15;101655.59;;;26.99;24.35
30073;BME280;16897;52.422;13.678;2023-06-04T16:54:17;101664.34;;;26.92;24.12
30073;BME280;16897;52.422;13.678;2023-06-04T16:58:19;101652.94;;;26.82;24.35
30073;BME280;16897;52.422;13.678;2023-06-04T17:02:21;101660.63;;;26.85;24.37
30073;BME280;16897;52.422;13.678;2023-06-04T17:06:22;101661.66;;;26.84;24.59
30073;BME280;16897;52.422;13.678;2023-06-04T17:10:28;101659.63;;;26.78;24.43
30073;BME280;16897;52.422;13.678;2023-06-04T17:14:30;101648.56;;;26.65;24.38
30073;BME280;16897;52.422;13.678;2023-06-04T17:18:31;101651.25;;;26.57;24.21
30073;BME280;16897;52.422;13.678;2023-06-04T17:22:33;101662.66;;;26.59;24.37
30073;BME280;16897;52.422;13.678;2023-06-04T17:26:34;101661.78;;;26.50;24.47
30073;BME280;16897;52.422;13.678;2023-06-04T17:30:36;101661.09;;;26.40;24.23
30073;BME280;16897;52.422;13.678;2023-06-04T17:34:38;101657.59;;;26.31;24.62
30073;BME280;16897;52.422;13.678;2023-06-04T17:38:39;101654.91;;;26.23;24.35
30073;BME280;16897;52.422;13.678;2023-06-04T17:42:41;101667.59;;;26.21;24.26
30073;BME280;16897;52.422;13.678;2023-06-04T17:46:47;101637.41;;;25.94;24.27
30073;BME280;16897;52.422;13.678;2023-06-04T17:50:48;101675.13;;;26.09;24.44
30073;BME280;16897;52.422;13.678;2023-06-04T17:54:50;101676.41;;;25.97;24.69
30073;BME280;16897;52.422;13.678;2023-06-04T17:58:51;101672.19;;;25.86;24.76
30073;BME280;16897;52.422;13.678;2023-06-04T18:02:52;101676.16;;;25.82;24.43
30073;BME280;16897;52.422;13.678;2023-06-04T18:06:54;101666.06;;;25.68;24.48
30073;BME280;16897;52.422;13.678;2023-06-04T18:10:56;101684.31;;;25.72;24.69
30073;BME280;16897;52.422;13.678;2023-06-04T18:14:57;101676.56;;;25.61;24.68
30073;BME280;16897;52.422;13.678;2023-06-04T18:18:58;101675.69;;;25.52;24.34
30073;BME280;16897;52.422;13.678;2023-06-04T18:23:00;101666.59;;;25.37;24.53
30073;BME280;16897;52.422;13.678;2023-06-04T18:27:03;101677.13;;;25.38;24.60
30073;BME280;16897;52.422;13.678;2023-06-04T18:31:04;101671.06;;;25.28;24.78
30073;BME280;16897;52.422;13.678;2023-06-04T18:35:06;101660.69;;;25.07;24.71
30073;BME280;16897;52.422;13.678;2023-06-04T18:39:08;101684.13;;;25.13;24.88
30073;BME280;16897;52.422;13.678;2023-06-04T18:43:09;101682.00;;;24.99;24.59
30073;BME280;16897;52.422;13.678;2023-06-04T18:47:11;101684.78;;;24.89;24.50
30073;BME280;16897;52.422;13.678;2023-06-04T18:51:12;101697.22;;;24.81;24.74
30073;BME280;16897;52.422;13.678;2023-06-04T18:55:14;101691.44;;;24.67;24.73
30073;BME280;16897;52.422;13.678;2023-06-04T18:59:17;101666.31;;;24.42;24.91
30073;BME280;16897;52.422;13.678;2023-06-04T19:03:19;101695.69;;;24.42;24.67
30073;BME280;16897;52.422;13.678;2023-06-04T19:07:21;101682.09;;;24.18;24.67
30073;BME280;16897;52.422;13.678;2023-06-04T19:11:22;101708.16;;;24.24;25.01
30073;BME280;16897;52.422;13.678;2023-06-04T19:15:27;101707.28;;;24.05;24.80
30073;BME280;16897;52.422;13.678;2023-06-04T19:19:29;101712.69;;;23.96;24.95
30073;BME280;16897;52.422;13.678;2023-06-04T19:23:32;101717.53;;;23.82;24.75
30073;BME280;16897;52.422;13.678;2023-06-04T19:27:35;101717.81;;;23.70;24.99
30073;BME280;16897;52.422;13.678;2023-06-04T19:31:37;101694.47;;;23.44;25.02
30073;BME280;16897;52.422;13.678;2023-06-04T19:35:38;101694.50;;;23.25;25.20
30073;BME280;16897;52.422;13.678;2023-06-04T19:39:40;101719.47;;;23.33;24.77
30073;BME280;16897;52.422;13.678;2023-06-04T19:43:41;101727.34;;;23.25;25.19
30073;BME280;16897;52.422;13.678;2023-06-04T19:47:42;101722.91;;;23.06;24.86
30073;BME280;16897;52.422;13.678;2023-06-04T19:51:44;101720.47;;;22.93;25.13
30073;BME280;16897;52.422;13.678;2023-06-04T19:55:46;101743.19;;;22.88;25.35
30073;BME280;16897;52.422;13.678;2023-06-04T19:59:48;101742.03;;;22.71;25.18
30073;BME280;16897;52.422;13.678;2023-06-04T20:03:49;101744.56;;;22.63;25.30
30073;BME280;16897;52.422;13.678;2023-06-04T20:07:51;101729.56;;;22.42;25.17
30073;BME280;16897;52.422;13.678;2023-06-04T20:11:53;101742.44;;;22.37;25.43
30073;BME280;16897;52.422;13.678;2023-06-04T20:15:55;101751.38;;;22.26;25.18
30073;BME280;16897;52.422;13.678;2023-06-04T20:19:56;101763.66;;;22.18;25.48
30073;BME280;16897;52.422;13.678;2023-06-04T20:23:58;101758.66;;;22.03;25.36
30073;BME280;16897;52.422;13.678;2023-06-04T20:27:59;101764.69;;;21.96;25.14
30073;BME280;16897;52.422;13.678;2023-06-04T20:32:01;101758.16;;;21.79;25.29
30073;BME280;16897;52.422;13.678;2023-06-04T20:36:03;101762.00;;;21.65;25.38
30073;BME280;16897;52.422;13.678;2023-06-04T20:40:05;101758.13;;;21.48;25.25
30073;BME280;16897;52.422;13.678;2023-06-04T20:44:06;101769.56;;;21.39;25.59
30073;BME280;16897;52.422;13.678;2023-06-04T20:48:08;101765.34;;;21.25;25.72
30073;BME280;16897;52.422;13.678;2023-06-04T20:52:09;101730.97;;;20.91;25.62
30073;BME280;16897;52.422;13.678;2023-06-04T20:56:11;101768.56;;;21.08;25.57